Time;durP1;ratioP1;P1;durP2;ratioP2;P2;SDS_P1;SDS_P2;PMS_P1;PMS_P2;Temp;Humidity;BMP_temperature;BMP_pressure;BME280_temperature;BME280_humidity;BME280_pressure;Samples;Min_cycle;Max_cycle;Signal;HPM_P1;HPM_P2
2022/07/17 00:01:21;;;;;;;1.60;1.50;;;20.30;61.00;;;21.23;44.20;101510.25;5042806;28;21111;-67
2022/07/17 00:03:48;;;;;;;2.30;2.10;;;20.20;61.00;;;21.25;43.85;101511.75;5034062;28;20613;-67
2022/07/17 00:06:15;;;;;;;2.00;1.90;;;20.30;61.00;;;21.26;43.73;101508.13;5052329;28;20715;-66
2022/07/17 00:08:42;;;;;;;2.50;2.20;;;20.30;60.90;;;21.15;43.88;101513.69;5052316;28;20698;-66
2022/07/17 00:11:10;;;;;;;2.50;1.90;;;20.30;61.00;;;21.18;44.03;101504.59;5012533;28;21185;-67
2022/07/17 00:13:37;;;;;;;2.50;1.93;;;20.30;61.00;;;21.14;44.13;101514.69;5013273;28;20616;-67
2022/07/17 00:16:04;;;;;;;5.53;2.30;;;20.20;61.00;;;21.11;44.03;101509.69;5031576;28;20732;-67
2022/07/17 00:18:31;;;;;;;9.40;2.00;;;20.20;61.00;;;21.12;44.24;101502.56;5034405;28;20615;-67
2022/07/17 00:20:58;;;;;;;1.90;1.80;;;20.20;61.20;;;21.13;44.28;101504.22;5036175;28;20676;-67
2022/07/17 00:23:25;;;;;;;2.07;1.97;;;20.20;61.20;;;21.00;44.69;101499.31;5032705;28;20823;-67
2022/07/17 00:25:52;;;;;;;2.10;2.00;;;20.20;61.50;;;21.05;44.41;101498.88;5045867;28;20647;-67
2022/07/17 00:28:19;;;;;;;4.67;2.30;;;20.10;61.80;;;21.01;44.18;101494.84;5051698;28;20632;-67
2022/07/17 00:30:46;;;;;;;3.73;2.20;;;20.10;61.70;;;20.92;44.66;101501.91;5051634;28;20616;-68
2022/07/17 00:33:17;;;;;;;2.23;2.13;;;20.00;61.80;;;20.78;45.01;101502.47;5048243;28;20735;-67
2022/07/17 00:35:44;;;;;;;2.47;2.00;;;20.00;61.90;;;20.87;44.77;101504.19;5032794;28;20640;-67
2022/07/17 00:38:11;;;;;;;1.77;1.67;;;20.00;62.20;;;20.79;45.01;101507.63;5031974;28;20643;-65
2022/07/17 00:40:37;;;;;;;2.20;1.90;;;19.90;62.20;;;20.90;44.82;101509.19;5039850;28;20667;-68
2022/07/17 00:43:05;;;;;;;1.93;1.83;;;20.00;62.30;;;20.93;44.80;101510.72;5032169;28;20617;-67
2022/07/17 00:45:32;;;;;;;2.07;1.93;;;20.00;62.50;;;20.87;44.61;101505.03;5014601;28;20659;-68
2022/07/17 00:48:03;;;;;;;2.47;2.27;;;20.00;62.30;;;20.70;45.62;101505.06;5046593;28;20631;-68
2022/07/17 00:50:35;;;;;;;1.60;1.50;;;19.90;62.30;;;20.81;45.36;101508.31;5051530;28;20985;-68
2022/07/17 00:53:04;;;;;;;2.03;1.93;;;19.90;62.50;;;20.81;45.15;101505.66;5051964;28;20631;-67
2022/07/17 00:55:32;;;;;;;2.03;1.93;;;19.90;62.70;;;20.61;45.54;101495.41;5035005;28;20746;-68
2022/07/17 00:58:22;;;;;;;4.43;1.83;;;19.80;62.80;;;20.52;46.01;101501.63;5035286;28;20702;-68
2022/07/17 01:00:52;;;;;;;2.00;1.90;;;19.70;63.10;;;20.50;45.89;101503.59;5039622;28;20693;-67
2022/07/17 01:03:22;;;;;;;2.40;2.20;;;19.60;64.00;;;20.42;45.92;101493.72;5029018;28;20629;-68
2022/07/17 01:05:49;;;;;;;2.50;2.30;;;19.50;63.70;;;20.42;46.33;101491.09;5031461;28;21007;-68
2022/07/17 01:08:17;;;;;;;2.23;2.13;;;19.50;63.80;;;20.41;46.09;101499.19;5031078;28;20656;-68
2022/07/17 01:10:44;;;;;;;2.07;1.90;;;19.50;64.00;;;20.45;45.81;101492.59;5051183;28;20997;-66
2022/07/17 01:13:11;;;;;;;1.90;1.80;;;19.50;63.90;;;20.32;46.29;101500.09;5032777;28;20638;-67
2022/07/17 01:15:40;;;;;;;2.70;2.00;;;19.40;63.90;;;20.32;45.98;101500.09;5033913;28;21165;-68
2022/07/17 01:18:11;;;;;;;3.30;2.20;;;19.40;63.90;;;20.33;46.15;101499.13;5051316;28;20708;-68
2022/07/17 01:20:39;;;;;;;2.00;1.90;;;19.40;63.90;;;20.25;46.24;101494.59;5051413;28;20734;-68
2022/07/17 01:23:07;;;;;;;2.83;1.83;;;19.40;64.00;;;20.32;46.00;101500.09;5050100;28;20635;-68
2022/07/17 01:25:35;;;;;;;2.73;2.20;;;19.50;63.80;;;20.27;46.06;101503.22;5051255;28;20674;-66
2022/07/17 01:28:04;;;;;;;1.90;1.80;;;19.40;63.90;;;20.20;46.46;101511.88;5042831;28;20732;-67
2022/07/17 01:30:32;;;;;;;3.80;2.10;;;19.30;64.20;;;20.19;46.60;101511.03;5031676;28;20623;-68
2022/07/17 01:32:59;;;;;;;4.00;2.00;;;19.30;64.30;;;20.14;46.68;101505.38;5038680;28;20628;-66
2022/07/17 01:35:27;;;;;;;2.87;1.73;;;19.30;64.50;;;20.24;46.47;101506.19;5016113;28;20705;-68
2022/07/17 01:37:53;;;;;;;1.93;1.83;;;19.20;64.50;;;20.24;46.37;101514.13;5030642;28;20615;-68
2022/07/17 01:40:21;;;;;;;2.20;2.03;;;19.30;64.40;;;20.16;46.31;101514.03;5038071;28;20672;-68
2022/07/17 01:42:49;;;;;;;4.03;1.90;;;19.20;64.40;;;20.07;46.40;101509.63;5034138;28;20645;-68
2022/07/17 01:45:18;;;;;;;4.70;2.20;;;19.20;64.40;;;20.04;46.49;101513.38;5030444;28;20683;-68
2022/07/17 01:47:47;;;;;;;1.70;1.60;;;19.10;64.50;;;19.93;46.28;101515.44;5036815;28;20668;-68
2022/07/17 01:50:14;;;;;;;3.37;2.00;;;19.10;64.60;;;19.94;46.73;101520.56;5050012;28;20615;-68
2022/07/17 01:52:44;;;;;;;3.03;2.30;;;19.00;65.00;;;19.77;47.28;101516.09;5050673;28;20620;-68
2022/07/17 01:55:14;;;;;;;1.93;1.83;;;18.90;65.30;;;19.73;47.42;101512.06;5050535;28;20644;-68
2022/07/17 01:57:42;;;;;;;1.97;1.80;;;18.90;65.40;;;19.80;46.88;101513.16;5049467;28;20731;-67
2022/07/17 02:00:14;;;;;;;2.17;1.93;;;18.90;66.00;;;19.90;46.96;101521.84;5050212;28;20644;-67
2022/07/17 02:02:41;;;;;;;2.40;2.20;;;18.90;65.60;;;19.84;47.26;101506.56;5030925;28;20643;-68
2022/07/17 02:05:08;;;;;;;3.07;1.80;;;18.90;65.70;;;19.83;46.97;101510.19;5030024;28;20645;-67
2022/07/17 02:07:39;;;;;;;2.00;1.90;;;19.00;65.40;;;19.91;46.96;101504.16;5044945;28;20638;-67
2022/07/17 02:10:09;;;;;;;1.70;1.60;;;19.00;65.30;;;19.95;46.72;101500.22;5049713;28;20618;-68
2022/07/17 02:12:36;;;;;;;4.93;2.23;;;19.00;65.30;;;19.77;47.05;101505.50;5049973;28;20636;-68
2022/07/17 02:15:05;;;;;;;2.33;2.07;;;18.90;65.50;;;19.88;46.81;101500.00;5050339;28;20671;-68
2022/07/17 02:17:31;;;;;;;3.97;1.83;;;19.00;65.30;;;19.78;47.03;101515.09;5032951;28;20752;-68
2022/07/17 02:19:58;;;;;;;1.97;1.87;;;18.90;65.10;;;19.78;47.14;101509.78;5030282;28;20720;-68
2022/07/17 02:22:26;;;;;;;4.10;2.00;;;18.90;65.50;;;19.76;46.97;101509.09;5029098;28;20754;-67
2022/07/17 02:24:53;;;;;;;3.27;1.90;;;18.80;65.60;;;19.63;47.10;101510.44;5029729;28;21234;-68
2022/07/17 02:27:20;;;;;;;1.77;1.67;;;18.80;65.60;;;19.66;47.32;101513.63;5037436;28;20727;-66
2022/07/17 02:29:47;;;;;;;2.03;1.90;;;18.80;66.00;;;19.60;47.25;101502.78;5049975;28;20842;-67
2022/07/17 02:32:14;;;;;;;2.23;1.83;;;18.70;65.90;;;19.53;47.32;101507.03;5043525;28;20661;-67
2022/07/17 02:34:41;;;;;;;3.20;2.00;;;18.60;66.00;;;19.47;47.75;101512.88;5029991;28;20652;-67
2022/07/17 02:37:08;;;;;;;1.80;1.70;;;18.60;66.40;;;19.45;47.61;101507.75;5032727;28;20655;-68
2022/07/17 02:39:35;;;;;;;2.10;2.00;;;18.60;66.40;;;19.49;47.55;101501.19;5038944;28;20629;-68
2022/07/17 02:42:01;;;;;;;2.73;1.80;;;18.60;66.30;;;19.38;47.44;101506.66;5038822;28;20667;-68
2022/07/17 02:44:28;;;;;;;2.93;2.10;;;18.50;66.30;;;19.27;47.78;101504.19;5049090;28;20748;-68
2022/07/17 02:46:55;;;;;;;2.30;2.10;;;18.40;66.80;;;19.25;48.16;101500.84;5041652;28;20632;-68
2022/07/17 02:49:22;;;;;;;4.27;2.57;;;18.40;67.00;;;19.14;48.32;101508.97;5028530;28;20719;-68
2022/07/17 02:51:49;;;;;;;1.77;1.67;;;18.30;67.00;;;19.18;48.09;101508.53;5020192;28;20641;-67
2022/07/17 02:54:16;;;;;;;3.63;2.50;;;18.30;67.30;;;19.06;48.42;101499.06;5021034;28;20766;-68
2022/07/17 02:56:43;;;;;;;2.43;1.90;;;18.20;67.50;;;18.97;48.85;101502.59;5047164;28;21010;-67
2022/07/17 02:59:10;;;;;;;2.10;2.00;;;18.10;67.80;;;18.99;49.03;101505.09;5039510;28;20668;-68
2022/07/17 03:01:37;;;;;;;1.93;1.83;;;18.10;68.30;;;19.04;48.65;101494.91;5028961;28;20660;-69
2022/07/17 03:04:04;;;;;;;2.17;2.07;;;18.20;68.20;;;19.19;48.40;101504.03;5034815;28;20679;-68
2022/07/17 03:06:31;;;;;;;1.90;1.80;;;18.20;67.80;;;19.23;48.39;101503.63;5041620;28;20641;-68
2022/07/17 03:08:58;;;;;;;2.00;1.80;;;18.30;67.70;;;19.09;48.63;101497.97;5029070;28;20620;-68
2022/07/17 03:11:25;;;;;;;2.50;1.63;;;18.30;67.80;;;18.99;48.85;101505.09;5033932;28;21203;-68
2022/07/17 03:13:52;;;;;;;2.20;1.70;;;18.20;68.00;;;18.97;49.07;101507.91;5028875;28;20645;-68
2022/07/17 03:16:19;;;;;;;1.83;1.73;;;18.10;68.30;;;18.94;49.15;101507.31;5033938;28;20639;-68
2022/07/17 03:18:46;;;;;;;1.73;1.63;;;18.10;68.50;;;18.95;48.97;101507.19;5028931;28;21187;-68
2022/07/17 03:21:13;;;;;;;3.40;1.60;;;18.10;68.60;;;19.06;48.91;101507.00;5012971;28;20665;-68
2022/07/17 03:23:40;;;;;;;1.90;1.80;;;18.10;68.70;;;18.83;49.21;101500.41;5021238;28;20613;-68
2022/07/17 03:26:07;;;;;;;3.17;1.80;;;18.00;68.60;;;18.82;49.08;101506.69;5034317;28;20647;-68
2022/07/17 03:28:34;;;;;;;2.40;2.20;;;18.00;68.70;;;18.83;49.06;101499.56;5047678;28;21010;-65
2022/07/17 03:31:01;;;;;;;1.87;1.77;;;18.00;68.80;;;18.74;49.81;101500.44;5018769;28;21229;-67
2022/07/17 03:33:28;;;;;;;3.70;1.53;;;17.90;69.40;;;18.75;49.69;101502.06;5032246;28;21176;-68
2022/07/17 03:35:56;;;;;;;14.57;1.87;;;17.90;69.60;;;18.59;50.15;101503.50;5034409;28;20671;-68
2022/07/17 03:38:23;;;;;;;2.83;1.83;;;17.80;69.90;;;18.66;50.04;101500.28;5041009;28;20631;-67
2022/07/17 03:40:50;;;;;;;4.00;2.07;;;17.80;70.10;;;18.67;50.28;101497.50;5038512;28;20620;-68
2022/07/17 03:43:17;;;;;;;7.93;1.77;;;17.80;70.20;;;18.60;50.24;101496.41;5034190;28;20613;-68
2022/07/17 03:45:44;;;;;;;5.30;1.97;;;17.80;70.30;;;18.73;49.87;101504.03;5032265;28;20661;-68
2022/07/17 03:48:11;;;;;;;1.60;1.50;;;17.80;70.10;;;18.70;50.15;101501.69;5034115;28;20667;-68
2022/07/17 03:50:38;;;;;;;2.70;1.60;;;17.80;70.40;;;18.73;50.12;101504.03;5038686;28;21016;-68
2022/07/17 03:53:05;;;;;;;1.90;1.80;;;17.80;70.50;;;18.80;49.94;101511.28;5035799;28;20629;-68
2022/07/17 03:55:32;;;;;;;1.53;1.53;;;17.80;70.30;;;18.82;49.89;101508.47;5033223;28;21246;-68
2022/07/17 03:57:59;;;;;;;2.97;1.80;;;17.90;70.30;;;18.81;50.16;101514.72;5052590;28;20695;-68
2022/07/17 04:00:26;;;;;;;2.03;1.83;;;17.90;70.30;;;18.88;49.68;101513.19;5034642;28;20680;-67
2022/07/17 04:02:53;;;;;;;3.50;1.87;;;18.00;70.20;;;18.89;50.03;101517.53;5031807;28;20669;-68
2022/07/17 04:05:21;;;;;;;4.40;1.73;;;18.00;70.20;;;18.79;49.99;101516.69;5017330;28;20762;-68
2022/07/17 04:07:48;;;;;;;3.90;1.60;;;18.00;70.20;;;18.84;49.97;101522.38;5031952;28;20625;-67
2022/07/17 04:10:15;;;;;;;2.30;1.80;;;17.90;70.50;;;18.90;49.98;101527.94;5048635;28;21002;-68
2022/07/17 04:12:42;;;;;;;5.90;1.83;;;18.00;70.40;;;19.21;49.07;101528.53;5051972;28;21434;-68
2022/07/17 04:15:10;;;;;;;3.13;1.77;;;18.20;69.90;;;19.39;48.89;101526.00;5052359;28;20734;-68
2022/07/17 04:17:37;;;;;;;3.10;2.00;;;18.40;69.60;;;19.66;48.45;101532.16;5030229;28;20695;-64
2022/07/17 04:20:05;;;;;;;1.87;1.77;;;18.70;69.10;;;19.81;48.24;101524.56;5033851;28;20714;-68
2022/07/17 04:22:32;;;;;;;5.73;1.77;;;18.90;68.80;;;19.95;47.92;101522.22;5052200;28;20662;-68
2022/07/17 04:24:59;;;;;;;3.47;1.60;;;19.00;68.40;;;20.28;47.51;101517.28;5051279;28;20628;-68
2022/07/17 04:27:25;;;;;;;7.97;1.60;;;19.20;67.90;;;20.31;47.17;101519.66;5033473;28;21247;-68
2022/07/17 04:29:53;;;;;;;2.43;1.40;;;19.30;67.60;;;20.42;46.95;101517.59;5033780;28;20631;-68
2022/07/17 04:32:20;;;;;;;1.57;1.50;;;19.50;68.20;;;20.51;47.29;101513.19;5032468;28;20989;-68
2022/07/17 04:34:46;;;;;;;2.13;1.60;;;19.50;67.40;;;20.67;46.80;101523.94;5031116;28;21007;-68
2022/07/17 04:37:14;;;;;;;4.40;1.70;;;19.70;67.20;;;20.75;46.52;101521.34;5031410;28;20627;-68
2022/07/17 04:39:41;;;;;;;2.97;1.83;;;19.80;66.50;;;20.95;45.73;101528.13;5013221;28;20639;-64
2022/07/17 04:42:08;;;;;;;1.87;1.47;;;19.90;66.20;;;21.21;45.44;101534.28;5031771;28;20698;-68
2022/07/17 04:44:35;;;;;;;4.17;1.83;;;20.30;65.40;;;21.47;44.74;101537.75;5030824;28;20671;-68
2022/07/17 04:47:01;;;;;;;1.80;1.70;;;20.50;64.90;;;21.71;43.92;101528.22;5031678;28;20724;-68
2022/07/17 04:49:29;;;;;;;3.63;1.70;;;20.60;64.30;;;21.59;44.22;101535.66;5029826;28;20639;-68
2022/07/17 04:51:55;;;;;;;2.60;1.60;;;20.60;64.10;;;21.79;44.10;101536.22;5031211;28;21229;-67
2022/07/17 04:54:23;;;;;;;1.40;1.40;;;20.80;63.70;;;21.79;43.82;101547.69;5013964;28;20643;-68
2022/07/17 04:56:50;;;;;;;2.23;1.87;;;20.90;63.20;;;21.77;43.70;101548.81;5038751;28;20636;-68
2022/07/17 04:59:17;;;;;;;6.90;2.20;;;20.80;63.30;;;21.84;43.28;101544.56;5022001;28;20622;-68
2022/07/17 05:01:43;;;;;;;2.90;1.93;;;20.90;63.10;;;21.76;43.79;101534.72;5026873;28;21070;-65
2022/07/17 05:04:11;;;;;;;1.90;1.40;;;20.90;62.90;;;21.96;43.29;101545.94;5034045;28;20659;-68
2022/07/17 05:06:38;;;;;;;1.77;1.67;;;20.90;63.00;;;22.03;43.35;101546.97;5026116;28;20739;-67
2022/07/17 05:09:05;;;;;;;3.37;1.80;;;21.00;62.90;;;22.22;42.51;101547.50;5050062;28;20619;-67
2022/07/17 05:11:31;;;;;;;2.70;1.60;;;21.20;62.30;;;22.21;42.60;101559.13;5050988;28;20663;-67
2022/07/17 05:13:58;;;;;;;1.67;1.57;;;21.30;61.70;;;22.31;42.30;101556.31;5051028;28;20636;-68
2022/07/17 05:16:25;;;;;;;1.77;1.57;;;21.30;61.70;;;22.52;41.89;101562.00;5048542;28;20635;-68
2022/07/17 05:18:52;;;;;;;1.73;1.63;;;21.40;61.40;;;22.77;41.59;101561.03;5030794;28;20645;-68
2022/07/17 05:21:19;;;;;;;2.53;1.30;;;21.70;61.30;;;23.18;40.94;101569.81;5030020;28;21226;-68
2022/07/17 05:23:46;;;;;;;1.70;1.60;;;22.00;61.40;;;23.56;40.08;101566.41;5031309;28;20715;-65
2022/07/17 05:26:13;;;;;;;3.97;1.40;;;22.40;59.80;;;23.84;38.93;101570.31;5029149;28;21017;-68
2022/07/17 05:28:40;;;;;;;1.50;1.40;;;22.80;58.50;;;23.97;39.19;101576.91;5030913;28;20989;-65
2022/07/17 05:31:07;;;;;;;2.03;1.43;;;23.00;58.30;;;24.15;38.68;101577.50;5030592;28;20637;-67
2022/07/17 05:33:34;;;;;;;2.00;1.70;;;23.10;58.00;;;24.30;38.49;101578.44;5031000;28;20641;-67
2022/07/17 05:36:02;;;;;;;3.90;2.03;;;23.30;57.20;;;24.54;37.86;101579.06;5035736;28;20634;-68
2022/07/17 05:38:29;;;;;;;4.87;2.60;;;23.50;57.10;;;24.77;37.11;101584.41;5050309;28;20644;-67
2022/07/17 05:40:56;;;;;;;2.13;1.50;;;23.70;56.60;;;24.95;37.18;101578.75;5041642;28;20624;-68
2022/07/17 05:43:23;;;;;;;2.20;1.17;;;23.80;56.40;;;24.85;37.26;101576.38;5029444;28;20657;-68
2022/07/17 05:45:53;;;;;;;3.70;1.50;;;23.90;56.20;;;25.25;36.40;101580.47;5028256;28;21185;-68
2022/07/17 05:48:20;;;;;;;1.70;1.60;;;24.20;55.60;;;25.46;36.47;101574.44;5037934;28;21196;-65
2022/07/17 05:50:47;;;;;;;1.53;1.43;;;24.40;55.50;;;25.78;35.75;101580.22;5034522;28;20650;-68
2022/07/17 05:53:15;;;;;;;1.40;1.40;;;24.70;54.70;;;26.09;35.23;101580.84;5032748;28;20625;-67
2022/07/17 05:55:42;;;;;;;2.17;1.50;;;25.00;54.20;;;26.15;34.66;101579.28;5034344;28;20669;-68
2022/07/17 05:58:10;;;;;;;2.07;1.50;;;25.20;53.80;;;26.26;34.62;101577.94;5031413;28;20647;-68
2022/07/17 06:00:37;;;;;;;1.70;1.50;;;25.20;53.20;;;26.07;34.78;101582.00;5029660;28;20613;-68
2022/07/17 06:03:04;;;;;;;1.60;1.60;;;25.10;53.40;;;26.34;34.50;101586.69;5038060;28;20671;-67
2022/07/17 06:05:32;;;;;;;1.37;1.33;;;25.30;54.00;;;26.81;34.13;101594.16;5000471;28;20652;-66
2022/07/17 06:07:59;;;;;;;3.63;1.67;;;25.70;53.30;;;27.22;33.30;101600.47;5050502;28;20604;-68
2022/07/17 06:10:27;;;;;;;1.50;1.40;;;26.10;52.50;;;27.74;32.58;101601.84;5050285;28;20616;-68
2022/07/17 06:12:56;;;;;;;1.47;1.37;;;26.40;52.00;;;27.93;32.10;101604.63;5024091;28;20629;-71
2022/07/17 06:15:23;;;;;;;2.20;1.47;;;26.50;51.70;;;28.69;31.46;101611.47;5030419;28;20703;-69
2022/07/17 06:17:50;;;;;;;1.90;1.73;;;26.90;51.80;;;28.91;31.14;101602.19;5036880;28;20630;-69
2022/07/17 06:20:18;;;;;;;1.40;1.40;;;27.20;51.40;;;29.21;30.61;101608.00;5023237;28;20616;-71
2022/07/17 06:22:45;;;;;;;2.33;1.30;;;27.30;50.80;;;29.99;28.87;101612.34;5012216;28;20668;-66
2022/07/17 06:25:12;;;;;;;1.80;1.50;;;27.80;50.30;;;30.89;27.53;101603.97;5025128;28;20651;-71
2022/07/17 06:27:41;;;;;;;1.70;1.60;;;28.30;49.40;;;31.20;27.46;101611.19;5026623;28;20679;-66
2022/07/17 06:30:10;;;;;;;1.77;1.30;;;28.70;48.90;;;31.79;26.71;101610.56;5019704;28;20620;-67
2022/07/17 06:32:37;;;;;;;2.30;1.40;;;29.10;48.40;;;32.26;25.73;101612.47;5029432;28;20613;-70
2022/07/17 06:35:06;;;;;;;1.70;1.60;;;29.60;47.30;;;33.19;23.92;101601.88;5029767;28;21031;-70
2022/07/17 06:37:33;;;;;;;1.37;1.37;;;30.20;46.60;;;33.30;24.11;101609.16;5029198;28;20717;-70
2022/07/17 06:40:01;;;;;;;2.33;1.47;;;30.20;46.50;;;34.34;23.56;101606.22;5042433;28;20638;-69
2022/07/17 06:42:28;;;;;;;4.20;1.30;;;30.80;46.00;;;35.46;22.20;101620.53;5048627;28;20659;-70
2022/07/17 06:44:58;;;;;;;1.73;1.60;;;31.50;45.50;;;36.34;21.25;101615.66;5029931;28;20661;-70
2022/07/17 06:47:25;;;;;;;1.10;1.10;;;32.00;44.60;;;36.89;20.72;101620.00;5029964;28;20708;-71
2022/07/17 06:49:52;;;;;;;2.60;1.60;;;32.40;44.40;;;37.80;19.78;101610.50;5041946;28;20637;-72
2022/07/17 06:52:19;;;;;;;1.43;1.33;;;33.10;43.90;;;38.74;19.55;101606.31;5035730;28;20641;-70
2022/07/17 06:54:46;;;;;;;3.00;1.40;;;33.80;43.10;;;39.44;17.87;101613.59;5030441;28;20645;-71
2022/07/17 06:57:13;;;;;;;1.40;1.30;;;34.30;42.40;;;40.47;17.20;101610.91;5032243;28;21234;-70
2022/07/17 06:59:40;;;;;;;2.07;1.50;;;35.20;42.10;;;40.40;17.55;101610.41;5029377;28;20989;-71
2022/07/17 07:02:07;;;;;;;2.67;1.53;;;35.50;41.40;;;40.81;17.26;101613.63;5022737;28;20686;-70
2022/07/17 07:04:34;;;;;;;1.60;1.50;;;35.80;41.10;;;40.97;17.44;101610.50;5050102;28;20739;-66
2022/07/17 07:07:01;;;;;;;3.00;1.60;;;35.90;41.20;;;40.56;16.98;101609.19;5040610;28;20632;-71
2022/07/17 07:09:28;;;;;;;1.40;1.30;;;35.80;40.50;;;41.33;16.73;101610.13;5028386;28;21211;-72
2022/07/17 07:11:55;;;;;;;1.97;1.80;;;36.20;40.00;;;40.67;16.78;101604.44;5029577;28;20627;-70
2022/07/17 07:14:22;;;;;;;1.60;1.30;;;36.10;40.00;;;40.61;17.18;101616.56;5045675;28;20666;-73
2022/07/17 07:16:48;;;;;;;1.97;1.40;;;36.10;40.10;;;41.50;16.42;101614.03;5032050;28;20630;-70
2022/07/17 07:19:15;;;;;;;1.70;1.50;;;36.20;39.90;;;42.44;15.24;101613.00;5031362;28;20719;-71
2022/07/17 07:21:42;;;;;;;1.80;1.47;;;36.70;39.00;;;43.77;14.83;101613.81;5030093;28;20640;-71
2022/07/17 07:24:10;;;;;;;3.57;1.50;;;37.40;39.00;;;44.34;14.14;101609.47;5029141;28;21478;-69
2022/07/17 07:26:37;;;;;;;1.60;1.40;;;37.90;39.00;;;44.90;13.45;101599.84;5034450;28;20635;-65
2022/07/17 07:29:03;;;;;;;1.77;1.37;;;38.40;37.80;;;45.00;13.42;101605.88;5032111;28;21389;-70
2022/07/17 07:31:30;;;;;;;1.83;1.73;;;38.70;37.20;;;44.86;13.10;101605.19;5027309;28;20682;-71
2022/07/17 07:33:58;;;;;;;1.30;1.30;;;38.60;37.40;;;44.27;13.80;101600.06;5028816;28;20645;-70
2022/07/17 07:36:25;;;;;;;1.50;1.40;;;38.30;37.30;;;44.52;13.77;101599.44;5024076;28;20983;-70
2022/07/17 07:38:56;;;;;;;1.30;1.30;;;38.60;37.50;;;45.41;13.00;101604.78;5013508;28;20624;-70
2022/07/17 07:41:23;;;;;;;2.20;1.77;;;38.80;37.00;;;46.28;12.11;101594.31;5020105;28;20622;-70
2022/07/17 07:43:51;;;;;;;1.70;1.60;;;39.30;36.50;;;47.01;11.99;101592.38;5022527;28;20664;-72
2022/07/17 07:46:18;;;;;;;1.50;1.40;;;39.90;36.40;;;47.38;11.58;101586.91;4992973;28;20610;-70
2022/07/17 07:48:45;;;;;;;1.40;1.40;;;40.30;35.60;;;47.67;11.12;101588.78;5028540;28;20640;-72
2022/07/17 07:51:12;;;;;;;1.57;1.47;;;40.40;35.50;;;47.36;10.92;101580.03;5036016;28;20719;-70
2022/07/17 07:53:39;;;;;;;2.30;2.03;;;40.10;35.50;;;46.66;11.81;101583.44;5017959;28;21198;-71
2022/07/17 07:56:06;;;;;;;2.70;1.40;;;40.00;35.30;;;46.75;11.93;101582.25;5034646;28;20623;-71
2022/07/17 07:58:34;;;;;;;1.80;1.30;;;40.20;35.30;;;46.61;12.11;101587.16;5037868;28;20625;-71
2022/07/17 08:01:01;;;;;;;3.90;1.67;;;40.00;35.30;;;47.16;11.54;101592.66;5032688;28;20627;-70
2022/07/17 08:03:28;;;;;;;1.70;1.60;;;40.40;35.40;;;47.66;11.56;101587.19;5031683;28;20663;-71
2022/07/17 08:05:55;;;;;;;7.60;1.43;;;40.70;35.00;;;44.97;13.00;101590.00;5030263;28;20667;-70
2022/07/17 08:08:22;;;;;;;1.40;1.30;;;39.60;35.40;;;42.09;15.04;101568.84;5033054;28;20667;-74
2022/07/17 08:10:49;;;;;;;2.87;1.50;;;38.00;36.20;;;39.36;17.30;101569.66;5043851;28;20709;-72
2022/07/17 08:13:17;;;;;;;1.73;1.63;;;36.40;37.00;;;38.08;17.76;101568.34;5035090;28;21242;-70
2022/07/17 08:15:44;;;;;;;1.50;1.43;;;35.30;37.80;;;36.68;19.53;101567.31;5040719;28;21246;-71
2022/07/17 08:18:11;;;;;;;2.00;1.90;;;34.20;38.60;;;34.06;21.80;101561.00;5031566;28;21079;-70
2022/07/17 08:20:38;;;;;;;1.60;1.50;;;32.40;40.10;;;32.01;24.55;101561.28;5030323;28;20636;-71
2022/07/17 08:23:05;;;;;;;1.30;1.20;;;30.90;41.60;;;33.12;23.53;101569.53;5032049;28;20668;-69
2022/07/17 08:25:34;;;;;;;2.50;1.70;;;30.90;42.10;;;32.54;23.65;101576.75;5018707;28;20641;-70
2022/07/17 08:28:05;;;;;;;2.17;1.60;;;30.40;42.50;;;32.12;25.02;101563.22;5014437;28;20633;-70
2022/07/17 08:30:34;;;;;;;1.80;1.67;;;30.00;43.20;;;30.98;25.68;101564.09;4997448;28;20609;-69
2022/07/17 08:33:08;;;;;;;1.70;1.60;;;29.70;43.50;;;30.75;26.79;101558.47;5028791;28;20636;-71
2022/07/17 08:35:36;;;;;;;1.53;1.43;;;29.20;44.40;;;30.64;26.96;101563.50;5027983;28;20656;-68
2022/07/17 08:38:04;;;;;;;1.80;1.70;;;29.00;44.70;;;31.49;25.50;101561.94;5034612;28;20634;-71
2022/07/17 08:40:34;;;;;;;2.30;1.37;;;29.40;44.40;;;31.39;25.51;101556.22;5031945;28;20736;-70
2022/07/17 08:43:05;;;;;;;2.20;1.40;;;29.30;44.20;;;31.05;26.59;101560.28;5013977;28;20715;-70
2022/07/17 08:45:33;;;;;;;1.47;1.37;;;29.30;44.50;;;31.27;26.38;101566.91;5049474;28;20698;-72
2022/07/17 08:48:01;;;;;;;1.90;1.47;;;29.40;44.80;;;31.54;25.69;101572.84;5035489;28;20633;-71
2022/07/17 08:50:34;;;;;;;1.40;1.40;;;29.60;43.90;;;31.43;25.70;101570.09;5017070;28;20640;-69
2022/07/17 08:53:02;;;;;;;1.30;1.20;;;29.60;44.00;;;31.33;25.41;101573.25;5030504;28;21010;-70
2022/07/17 08:55:30;;;;;;;1.83;1.73;;;29.50;43.50;;;31.56;25.57;101576.16;5019957;28;21288;-70
2022/07/17 08:57:57;;;;;;;1.53;1.50;;;29.60;44.00;;;31.71;25.42;101565.00;5037973;28;20713;-70
2022/07/17 09:00:25;;;;;;;1.47;1.37;;;29.70;44.20;;;31.78;25.20;101569.25;5034121;28;20622;-71
2022/07/17 09:03:15;;;;;;;1.93;1.60;;;29.80;43.90;;;31.41;25.74;101566.78;5039439;28;20776;-70
2022/07/17 09:05:42;;;;;;;1.60;1.50;;;29.60;43.90;;;31.39;25.65;101565.09;5031810;28;20640;-73
2022/07/17 09:08:22;;;;;;;2.00;1.60;;;29.50;43.70;;;30.84;26.54;101555.25;5050640;28;20628;-71
2022/07/17 09:10:53;;;;;;;3.83;1.60;;;29.40;44.10;;;30.67;26.62;101550.66;5050544;28;20642;-70
2022/07/17 09:13:25;;;;;;;1.60;1.50;;;29.10;44.30;;;31.32;25.36;101555.44;5050813;28;20670;-70
2022/07/17 09:15:58;;;;;;;2.70;1.70;;;29.40;43.90;;;31.13;25.40;101553.78;5051020;28;20647;-72
2022/07/17 09:18:25;;;;;;;1.80;1.70;;;29.40;43.30;;;30.88;24.81;101542.22;5051009;28;21015;-69
2022/07/17 09:20:58;;;;;;;3.10;1.37;;;29.40;42.70;;;30.67;26.04;101534.50;5044880;28;20982;-70
2022/07/17 09:23:26;;;;;;;2.07;1.70;;;29.30;43.30;;;30.34;26.21;101535.59;5030652;28;20660;-73
2022/07/17 09:25:56;;;;;;;2.23;2.03;;;29.10;43.50;;;31.00;24.97;101540.44;5031147;28;21423;-69
2022/07/17 09:28:24;;;;;;;1.43;1.33;;;29.30;43.50;;;31.41;24.89;101542.53;5012287;28;20931;-69
2022/07/17 09:30:54;;;;;;;2.87;1.70;;;29.50;43.80;;;30.84;25.64;101535.59;5004066;28;21063;-73
2022/07/17 09:33:26;;;;;;;1.83;1.47;;;29.30;43.30;;;30.66;25.31;101536.38;5050903;28;20635;-70
2022/07/17 09:36:07;;;;;;;1.50;1.40;;;29.10;43.50;;;30.85;25.47;101532.66;5026492;28;21236;-70
2022/07/17 09:38:38;;;;;;;5.97;1.50;;;29.20;43.80;;;30.81;25.70;101525.25;5026241;28;20637;-70
2022/07/17 09:41:15;;;;;;;1.30;1.30;;;29.20;43.30;;;31.16;25.06;101527.19;5016922;28;20647;-69
2022/07/17 09:43:58;;;;;;;1.63;1.40;;;29.30;43.30;;;31.13;25.22;101530.34;5050801;28;21010;-70
2022/07/17 09:46:34;;;;;;;1.60;1.50;;;29.20;43.20;;;30.84;25.72;101524.81;5028052;28;20720;-71
2022/07/17 09:49:07;;;;;;;1.10;1.10;;;29.10;43.60;;;31.20;25.05;101530.28;5044577;28;21199;-69
2022/07/17 09:51:38;;;;;;;1.33;1.23;;;29.30;43.40;;;30.86;25.51;101523.56;5020103;28;20633;-71
2022/07/17 09:54:08;;;;;;;2.30;1.27;;;29.30;43.50;;;30.94;25.45;101520.59;5026143;28;20641;-70
2022/07/17 09:56:37;;;;;;;1.30;1.23;;;29.30;43.70;;;30.77;25.47;101524.88;5025333;28;20662;-70
2022/07/17 09:59:06;;;;;;;1.57;1.40;;;29.30;43.10;;;31.11;25.58;101526.22;5032208;28;20631;-71
2022/07/17 10:01:36;;;;;;;1.33;1.23;;;29.40;43.20;;;30.66;25.02;101522.91;5047187;28;21152;-72
2022/07/17 10:04:04;;;;;;;1.40;1.40;;;29.30;42.30;;;30.03;26.41;101511.31;5030875;28;20739;-69
2022/07/17 10:06:31;;;;;;;1.37;1.37;;;29.00;43.20;;;30.18;25.82;101516.38;5032747;28;20618;-71
2022/07/17 10:09:00;;;;;;;3.83;1.40;;;28.90;43.50;;;29.99;26.03;101520.84;5024838;28;21332;-67
2022/07/17 10:11:35;;;;;;;2.00;1.37;;;28.80;43.50;;;29.71;26.21;101517.66;5010317;28;21204;-70
2022/07/17 10:14:11;;;;;;;1.60;1.50;;;28.50;43.70;;;29.87;26.44;101527.97;5013139;28;20629;-69
2022/07/17 10:16:38;;;;;;;1.70;1.60;;;28.60;43.60;;;30.00;26.54;101516.31;5013184;28;20640;-68